Time;durP1;ratioP1;P1;durP2;ratioP2;P2;SDS_P1;SDS_P2;PMS_P1;PMS_P2;Temp;Humidity;BMP_temperature;BMP_pressure;BME280_temperature;BME280_humidity;BME280_pressure;Samples;Min_cycle;Max_cycle;Signal;HPM_P1;HPM_P2
2022/03/21 00:03:18;;;;;;;79.75;50.03;;;;;;;2.51;89.48;102924.09;10421693;28;20068;-74
2022/03/21 00:08:20;;;;;;;72.43;48.08;;;;;;;2.58;88.43;102934.41;10421455;28;20069;-74
2022/03/21 00:13:21;;;;;;;75.70;48.95;;;;;;;2.50;87.75;102935.75;10421862;28;20039;-74
2022/03/21 00:18:22;;;;;;;78.38;50.30;;;;;;;2.33;86.74;102922.56;10420853;28;20461;-74
2022/03/21 00:23:23;;;;;;;66.07;48.80;;;;;;;2.34;86.92;102929.63;10402229;28;20040;-73
2022/03/21 00:28:23;;;;;;;78.32;48.55;;;;;;;2.47;88.11;102940.44;10419951;28;20033;-73
2022/03/21 00:33:23;;;;;;;67.65;50.28;;;;;;;2.51;86.82;102942.81;10419836;28;20111;-74
2022/03/21 00:38:24;;;;;;;81.38;54.53;;;;;;;2.36;88.15;102941.06;10386169;28;20049;-74
2022/03/21 00:43:24;;;;;;;73.60;50.63;;;;;;;2.34;88.91;102940.34;10421216;28;20036;-74
2022/03/21 00:48:25;;;;;;;68.82;49.05;;;;;;;2.21;88.60;102939.38;10402481;28;20080;-74
2022/03/21 00:53:26;;;;;;;72.60;49.03;;;;;;;2.07;87.28;102942.84;10418826;28;20041;-74
2022/03/21 00:58:26;;;;;;;69.60;51.95;;;;;;;1.98;87.19;102944.28;10419842;28;20107;-74
2022/03/21 01:03:27;;;;;;;71.03;49.13;;;;;;;1.88;86.54;102944.91;10417729;28;20037;-74
2022/03/21 01:08:27;;;;;;;72.82;49.97;;;;;;;1.75;86.65;102947.44;10418694;28;20501;-73
2022/03/21 01:13:28;;;;;;;72.45;50.35;;;;;;;1.66;85.63;102956.84;10400785;28;20044;-74
2022/03/21 01:18:29;;;;;;;83.78;52.53;;;;;;;1.59;85.79;102953.66;10418436;28;20492;-75
2022/03/21 01:23:29;;;;;;;90.35;57.90;;;;;;;1.50;85.52;102954.22;10417005;28;20523;-73
2022/03/21 01:28:29;;;;;;;85.57;54.17;;;;;;;1.39;85.26;102949.47;10433009;28;20103;-74
2022/03/21 01:33:31;;;;;;;74.43;50.55;;;;;;;1.23;84.87;102958.44;10417329;28;20128;-74
2022/03/21 01:38:31;;;;;;;73.57;53.88;;;;;;;1.19;85.72;102965.75;10415639;28;20492;-74
2022/03/21 01:43:32;;;;;;;72.80;53.65;;;;;;;1.30;85.26;102967.81;10418452;28;20080;-73
2022/03/21 01:48:32;;;;;;;81.97;53.80;;;;;;;1.13;84.79;102972.28;10416250;28;20061;-74
2022/03/21 01:58:52;;;;;;;84.57;53.97;;;;;;;0.78;84.25;102978.69;10415674;28;20041;-74
2022/03/21 02:03:53;;;;;;;71.45;51.33;;;;;;;0.75;84.38;102970.84;10399940;28;20033;-74
2022/03/21 02:08:53;;;;;;;74.07;54.90;;;;;;;0.88;84.65;102972.75;10416556;28;20037;-74
2022/03/21 02:13:54;;;;;;;95.97;58.38;;;;;;;0.89;84.93;102974.50;10415224;28;20037;-74
2022/03/21 02:18:55;;;;;;;81.25;56.05;;;;;;;1.00;84.73;102976.59;10415911;28;20378;-75
2022/03/21 02:23:59;;;;;;;84.97;56.25;;;;;;;0.93;83.83;102970.72;10415340;28;20040;-74
2022/03/21 02:28:59;;;;;;;71.68;49.65;;;;;;;0.92;84.66;102978.78;10433605;28;20068;-77
2022/03/21 02:34:00;;;;;;;78.90;51.67;;;;;;;1.03;85.09;102986.22;10422209;28;20032;-76
2022/03/21 02:39:00;;;;;;;78.07;53.75;;;;;;;1.13;84.66;102977.63;10417501;28;20438;-76
2022/03/21 02:44:01;;;;;;;78.07;55.80;;;;;;;1.04;83.72;102972.78;10415737;28;20030;-76
2022/03/21 02:49:02;;;;;;;76.70;54.20;;;;;;;1.04;84.44;102980.78;10415043;28;20056;-76
2022/03/21 02:54:02;;;;;;;80.05;52.53;;;;;;;1.13;84.92;102982.09;10416493;28;20069;-76
2022/03/21 02:59:02;;;;;;;87.45;54.92;;;;;;;1.24;84.79;102982.34;10416846;28;20412;-76
2022/03/21 03:04:03;;;;;;;84.03;57.10;;;;;;;1.23;84.02;102979.78;10416114;28;20117;-76
2022/03/21 03:09:03;;;;;;;76.72;53.53;;;;;;;1.24;84.68;102973.50;10417096;28;20036;-77
2022/03/21 03:14:04;;;;;;;81.68;56.13;;;;;;;1.42;86.44;102977.78;10415916;28;20030;-77
2022/03/21 03:19:05;;;;;;;82.68;54.28;;;;;;;1.58;87.55;102969.78;10414116;28;20041;-76
2022/03/21 03:24:06;;;;;;;89.25;61.53;;;;;;;1.61;86.99;102982.94;10430434;28;20492;-76
2022/03/21 03:29:06;;;;;;;93.53;65.20;;;;;;;1.54;87.92;102982.44;10414554;28;20033;-76
2022/03/21 03:34:06;;;;;;;79.22;56.05;;;;;;;1.55;87.24;102986.81;10415695;28;20124;-76
2022/03/21 03:39:07;;;;;;;83.75;58.22;;;;;;;1.54;86.75;102989.59;10416218;28;20066;-77
2022/03/21 03:44:07;;;;;;;84.55;57.30;;;;;;;1.60;87.45;102987.44;10416332;28;20538;-76
2022/03/21 03:49:08;;;;;;;76.78;58.08;;;;;;;1.62;87.69;102990.84;10414013;28;20052;-77
2022/03/21 03:54:08;;;;;;;92.10;58.63;;;;;;;1.62;89.27;102995.34;10419191;28;20483;-77
2022/03/21 03:59:08;;;;;;;87.40;59.92;;;;;;;1.62;89.25;102996.19;10420976;28;20053;-77
2022/03/21 04:04:09;;;;;;;92.78;59.55;;;;;;;1.56;88.71;102996.59;10424798;28;20032;-77
2022/03/21 04:09:09;;;;;;;86.05;56.53;;;;;;;1.51;88.88;103001.31;10424324;28;20067;-76
2022/03/21 04:14:10;;;;;;;83.60;54.30;;;;;;;1.47;89.07;103007.78;10421589;28;20034;-76
2022/03/21 04:19:11;;;;;;;74.93;56.97;;;;;;;1.48;88.48;102998.81;10421490;28;20442;-77
2022/03/21 04:24:12;;;;;;;75.38;55.60;;;;;;;1.43;88.76;103006.22;10420524;28;20087;-76
2022/03/21 04:29:12;;;;;;;82.45;56.38;;;;;;;1.43;89.61;103010.69;10419866;28;20083;-76
2022/03/21 04:34:12;;;;;;;77.28;54.67;;;;;;;1.47;88.96;103005.09;10422539;28;20033;-76
2022/03/21 04:39:13;;;;;;;80.53;56.53;;;;;;;1.45;88.74;103015.00;10403997;28;20136;-76
2022/03/21 04:44:13;;;;;;;82.82;50.65;;;;;;;1.47;88.18;103010.44;10421352;28;20487;-76
2022/03/21 04:49:14;;;;;;;81.45;51.45;;;;;;;1.40;88.05;103009.03;10419538;28;20115;-76
2022/03/21 04:54:15;;;;;;;80.97;53.05;;;;;;;1.41;88.09;103018.78;10402986;28;20396;-77
2022/03/21 04:59:15;;;;;;;70.32;51.22;;;;;;;1.34;87.68;103018.28;10419888;28;20045;-76
2022/03/21 05:04:15;;;;;;;77.20;50.15;;;;;;;1.32;87.35;103019.31;10420410;28;20381;-77
2022/03/21 05:09:16;;;;;;;82.22;53.53;;;;;;;1.30;87.06;103029.19;10406370;28;20037;-76
2022/03/21 05:14:17;;;;;;;82.63;52.17;;;;;;;1.22;86.40;103023.44;10428519;28;20047;-77
2022/03/21 05:19:17;;;;;;;73.28;49.50;;;;;;;1.09;86.36;103026.78;10419144;28;20405;-76
2022/03/21 05:40:34;;;;;;;75.47;49.67;;;;;;;1.11;86.05;103054.22;10418772;28;20041;-76
2022/03/21 05:45:34;;;;;;;72.75;51.67;;;;;;;1.07;86.12;103050.00;10420610;28;20060;-76
2022/03/21 05:50:35;;;;;;;75.57;49.67;;;;;;;0.99;nan;103049.56;10420748;28;20062;-76
2022/03/21 05:55:35;;;;;;;76.28;51.05;;;;;;;1.00;85.46;103056.63;10400649;28;20068;-73
2022/03/21 06:00:36;;;;;;;80.15;50.15;;;;;;;1.14;86.31;103059.38;10417581;28;20497;-74
2022/03/21 06:05:37;;;;;;;77.38;52.90;;;;;;;1.36;86.28;103063.56;10418012;28;20045;-75
2022/03/21 06:10:37;;;;;;;75.10;52.47;;;;;;;1.56;86.09;103071.34;10418351;28;20061;-75
2022/03/21 06:15:38;;;;;;;77.07;52.80;;;;;;;1.74;86.56;103080.13;10435835;28;20033;-76
2022/03/21 06:20:39;;;;;;;78.63;52.40;;;;;;;2.20;85.84;103071.28;10403261;28;20385;-76
2022/03/21 06:25:39;;;;;;;86.50;55.72;;;;;;;2.76;86.73;103081.28;10415969;28;20120;-75
2022/03/21 06:30:40;;;;;;;69.40;50.70;;;;;;;3.69;86.50;103076.38;10418662;28;20477;-75
2022/03/21 06:35:41;;;;;;;78.00;54.65;;;;;;;4.58;85.67;103076.69;10415475;28;20117;-75
2022/03/21 06:40:42;;;;;;;83.68;53.95;;;;;;;5.47;86.06;103078.50;10416612;28;20385;-75
2022/03/21 06:45:43;;;;;;;67.03;47.92;;;;;;;6.27;86.88;103078.88;10415580;28;20546;-75
2022/03/21 06:50:46;;;;;;;70.22;41.90;;;;;;;6.90;86.34;103084.81;10399354;28;20057;-76
2022/03/21 06:55:46;;;;;;;60.70;39.22;;;;;;;7.48;85.71;103087.44;10398733;28;20033;-75
2022/03/21 07:00:47;;;;;;;58.15;39.08;;;;;;;8.07;84.70;103087.09;10415514;28;20116;-76
2022/03/21 07:05:47;;;;;;;60.28;38.65;;;;;;;8.85;84.59;103101.25;10399049;28;20044;-76
2022/03/21 07:10:48;;;;;;;54.67;35.03;;;;;;;9.26;83.27;103100.34;10415784;28;20056;-75
2022/03/21 07:15:51;;;;;;;44.83;34.72;;;;;;;9.67;81.26;103094.94;10417107;28;20037;-76
2022/03/21 07:20:52;;;;;;;46.58;33.00;;;;;;;10.21;80.32;103101.72;10415688;28;20029;-76
2022/03/21 07:25:52;;;;;;;53.88;32.70;;;;;;;10.54;77.65;103105.06;10416655;28;20033;-76
2022/03/21 07:30:53;;;;;;;47.83;33.13;;;;;;;10.83;74.15;103107.75;10414801;28;20038;-76
2022/03/21 07:35:53;;;;;;;39.38;30.85;;;;;;;11.09;78.28;103103.41;10421777;28;20516;-76
2022/03/21 07:40:53;;;;;;;50.30;31.60;;;;;;;11.46;76.10;103110.72;10424651;28;20033;-78
2022/03/21 07:51:13;;;;;;;42.85;29.42;;;;;;;12.13;73.04;103108.66;10424846;28;20057;-76
2022/03/21 07:56:14;;;;;;;40.28;28.90;;;;;;;12.52;65.86;103103.75;10423178;28;20134;-77
2022/03/21 08:01:14;;;;;;;43.22;26.50;;;;;;;13.05;68.17;103107.41;10423051;28;20033;-77
2022/03/21 08:06:16;;;;;;;40.95;26.20;;;;;;;13.56;62.38;103111.13;10422537;28;20061;-77
2022/03/21 08:11:17;;;;;;;44.72;27.33;;;;;;;13.59;58.71;103115.34;10421182;28;20041;-77
2022/03/21 08:16:19;;;;;;;40.88;26.30;;;;;;;13.77;57.17;103109.81;10421247;28;20116;-77
2022/03/21 08:21:20;;;;;;;37.47;27.30;;;;;;;14.14;56.27;103115.72;10422038;28;20037;-77
2022/03/21 08:26:21;;;;;;;34.75;27.65;;;;;;;14.53;56.86;103120.59;10422454;28;20449;-77
2022/03/21 08:31:21;;;;;;;34.25;27.33;;;;;;;14.76;56.65;103114.44;10423028;28;20441;-77
2022/03/21 08:36:22;;;;;;;30.02;23.73;;;;;;;15.08;51.17;103111.66;10421238;28;20030;-77
2022/03/21 08:41:22;;;;;;;34.00;26.27;;;;;;;15.16;49.99;103112.69;10421532;28;20044;-77
2022/03/21 08:46:23;;;;;;;34.80;24.90;;;;;;;15.50;49.41;103115.13;10418789;28;20029;-77
2022/03/21 08:51:23;;;;;;;31.58;23.90;;;;;;;15.95;45.50;103108.13;10422285;28;20084;-77
2022/03/21 08:56:25;;;;;;;30.88;20.65;;;;;;;15.90;40.44;103107.84;10403012;28;20034;-77
2022/03/21 09:01:27;;;;;;;30.58;22.10;;;;;;;15.83;46.52;103123.25;10422150;28;20044;-78
2022/03/21 09:06:28;;;;;;;35.28;23.42;;;;;;;16.28;44.61;103111.53;10420094;28;20107;-77
2022/03/21 09:11:29;;;;;;;28.00;22.20;;;;;;;16.99;41.69;103116.78;10404409;28;20041;-77
2022/03/21 09:16:29;;;;;;;41.63;21.40;;;;;;;17.11;44.17;103115.31;10419338;28;20540;-77
2022/03/21 09:21:30;;;;;;;39.13;22.58;;;;;;;16.76;37.17;103114.09;10435253;28;20037;-78
2022/03/21 09:26:30;;;;;;;32.08;22.70;;;;;;;16.67;40.28;103107.81;10419167;28;20112;-78
2022/03/21 09:31:35;;;;;;;25.65;18.88;;;;;;;17.09;40.79;103110.00;10400972;28;20030;-78
2022/03/21 09:36:36;;;;;;;33.28;18.70;;;;;;;17.65;37.27;103104.06;10401646;28;20481;-77
2022/03/21 09:41:36;;;;;;;25.80;17.65;;;;;;;18.05;40.96;103102.66;10419961;28;20033;-77
2022/03/21 09:46:38;;;;;;;31.65;20.15;;;;;;;18.20;36.45;103096.28;10434243;28;20127;-77
2022/03/21 09:51:39;;;;;;;27.08;19.90;;;;;;;18.30;35.76;103100.41;10418204;28;20451;-78
2022/03/21 09:56:39;;;;;;;22.20;17.20;;;;;;;18.25;33.53;103102.91;10417638;28;20091;-78
2022/03/21 10:01:41;;;;;;;27.42;17.02;;;;;;;18.47;33.43;103092.75;10419407;28;20038;-78
2022/03/21 10:06:43;;;;;;;24.63;18.10;;;;;;;18.77;33.73;103096.22;10401559;28;20025;-78
2022/03/21 10:11:54;;;;;;;25.83;16.70;;;;;;;19.29;32.71;103088.56;10417122;28;20091;-78
2022/03/21 10:17:11;;;;;;;27.65;17.35;;;;;;;19.39;31.88;103091.78;10418833;28;20030;-78
2022/03/21 10:22:13;;;;;;;22.73;15.43;;;;;;;19.49;30.29;103095.00;10402563;28;20042;-77
2022/03/21 10:27:30;;;;;;;19.40;14.27;;;;;;;19.37;29.84;103087.53;10419874;28;20128;-78
2022/03/21 10:32:35;;;;;;;;;;;;;;;19.16;30.38;103097.56;10419343;28;20040;-78
2022/03/21 10:37:50;;;;;;;25.30;15.43;;;;;;;19.59;32.35;103085.53;10418483;28;19917;-78
2022/03/21 10:42:55;;;;;;;12.93;11.52;;;;;;;19.85;30.53;103087.59;10417513;28;20032;-78
2022/03/21 10:47:55;;;;;;;23.83;12.15;;;;;;;20.17;28.51;103086.81;10418012;28;20053;-78
2022/03/21 10:53:09;;;;;;;16.08;11.27;;;;;;;19.60;26.46;103079.84;10416185;28;20029;-77
2022/03/21 10:58:10;;;;;;;16.08;11.43;;;;;;;19.75;27.74;103079.72;10417276;28;20123;-78
2022/03/21 11:03:15;;;;;;;14.95;11.13;;;;;;;20.62;32.21;103078.00;10398716;28;20540;-78
2022/03/21 11:08:17;;;;;;;15.77;11.10;;;;;;;20.86;25.17;103071.84;10399687;28;20128;-77
2022/03/21 11:13:19;;;;;;;18.48;11.93;;;;;;;20.48;27.49;103068.00;10398502;28;20124;-78
2022/03/21 11:18:20;;;;;;;16.65;11.35;;;;;;;20.33;25.80;103070.97;10414732;28;20036;-78
2022/03/21 11:23:21;;;;;;;12.63;10.30;;;;;;;20.29;26.07;103066.94;10399212;28;20054;-78
2022/03/21 11:28:40;;;;;;;15.68;12.25;;;;;;;20.47;24.17;103064.41;10383449;28;20064;-78
2022/03/21 11:34:22;;;;;;;12.75;10.10;;;;;;;20.35;27.53;103058.69;10418463;28;20095;-78
2022/03/21 11:39:23;;;;;;;16.42;11.52;;;;;;;21.03;24.54;103052.97;10416773;28;20041;-78
2022/03/21 11:44:23;;;;;;;12.88;11.45;;;;;;;20.70;25.06;103039.25;10415505;28;20041;-78
2022/03/21 11:49:25;;;;;;;15.07;10.88;;;;;;;20.72;30.02;103053.66;10414104;28;20107;-78
2022/03/21 11:54:37;;;;;;;21.75;11.77;;;;;;;20.69;24.30;103051.31;10415004;28;20049;-78
2022/03/21 11:59:40;;;;;;;16.05;11.90;;;;;;;20.83;28.82;103046.63;10397690;28;20520;-78
2022/03/21 12:04:42;;;;;;;24.48;12.27;;;;;;;21.35;27.13;103034.69;10414955;28;20389;-78
2022/03/21 12:09:52;;;;;;;14.25;11.68;;;;;;;22.06;28.45;103028.16;10414473;28;20029;-78
2022/03/21 12:15:00;;;;;;;18.98;11.88;;;;;;;21.74;28.58;103034.72;10415097;28;20117;-78
2022/03/21 12:20:02;;;;;;;14.85;12.07;;;;;;;21.34;25.44;103026.59;10386041;28;20603;-78
2022/03/21 12:25:14;;;;;;;20.80;12.50;;;;;;;21.24;28.02;103028.97;10405259;28;20553;-78
2022/03/21 12:30:20;;;;;;;14.73;12.15;;;;;;;21.32;29.57;103017.72;10421304;28;20033;-78
2022/03/21 12:35:45;;;;;;;14.65;10.57;;;;;;;20.91;26.76;103005.13;10421232;28;20553;-78
2022/03/21 12:40:55;;;;;;;14.07;10.57;;;;;;;20.05;27.18;103011.47;10421898;28;20033;-78
2022/03/21 12:46:08;;;;;;;24.73;13.18;;;;;;;20.25;27.12;103014.25;10421113;28;20095;-78
2022/03/21 12:51:11;;;;;;;20.10;12.48;;;;;;;19.94;29.23;103012.06;10419108;28;20049;-78
2022/03/21 12:56:17;;;;;;;16.33;12.32;;;;;;;19.69;31.48;103009.94;10420253;28;20025;-77
2022/03/21 13:01:18;;;;;;;21.85;13.93;;;;;;;20.19;32.71;103002.16;10421949;28;20099;-78
2022/03/21 13:11:40;;;;;;;14.43;12.57;;;;;;;19.92;32.32;102997.72;10421987;28;20499;-78
2022/03/21 13:17:10;;;;;;;22.33;13.27;;;;;;;20.10;32.15;102992.44;10389580;28;20033;-78
2022/03/21 13:22:11;;;;;;;17.30;12.30;;;;;;;20.32;34.68;102987.56;10420229;28;20112;-78
2022/03/21 13:27:13;;;;;;;15.77;11.32;;;;;;;20.34;35.05;102984.63;10402853;28;20381;-78
2022/03/21 13:32:13;;;;;;;13.45;11.35;;;;;;;20.07;32.45;102990.13;10419038;28;20044;-78
2022/03/21 13:37:16;;;;;;;17.23;12.43;;;;;;;19.95;35.02;102986.28;10418488;28;20041;-78
2022/03/21 13:42:21;;;;;;;17.13;12.73;;;;;;;20.70;36.70;102977.81;10401105;28;20033;-78
2022/03/21 13:47:21;;;;;;;24.27;13.95;;;;;;;20.83;35.17;102975.88;10400662;28;20054;-78
2022/03/21 13:52:53;;;;;;;18.58;13.35;;;;;;;20.41;33.85;102978.03;10401186;28;20124;-77
2022/03/21 13:58:14;;;;;;;17.25;14.15;;;;;;;20.55;32.81;102976.16;10413604;28;20127;-78
2022/03/21 14:03:35;;;;;;;22.98;15.05;;;;;;;19.61;34.81;102987.25;10402290;28;20128;-78
2022/03/21 14:08:36;;;;;;;19.27;12.73;;;;;;;20.02;37.47;102978.88;10400110;28;20029;-78
2022/03/21 14:13:41;;;;;;;17.83;12.77;;;;;;;20.15;37.43;102967.06;10416828;28;20461;-78
2022/03/21 14:18:56;;;;;;;20.80;12.90;;;;;;;19.77;34.71;102969.53;10401650;28;20036;-78
2022/03/21 14:23:57;;;;;;;16.50;11.57;;;;;;;19.52;37.02;102967.34;10401881;28;20187;-78
2022/03/21 14:28:58;;;;;;;32.03;15.15;;;;;;;19.34;36.18;102958.84;10382763;28;20041;-78
2022/03/21 14:33:59;;;;;;;16.63;14.02;;;;;;;19.48;36.77;102958.66;10415806;28;20432;-78
2022/03/21 14:39:00;;;;;;;21.45;14.00;;;;;;;19.20;37.70;102958.75;10415625;28;20400;-78
2022/03/21 14:44:01;;;;;;;19.98;12.20;;;;;;;18.83;38.13;102954.59;10398880;28;20048;-77
2022/03/21 14:49:01;;;;;;;25.65;15.18;;;;;;;18.26;38.11;102947.41;10382935;28;20488;-77
2022/03/21 14:54:08;;;;;;;22.25;14.43;;;;;;;18.58;40.65;102945.97;10398786;28;20083;-78
2022/03/21 14:59:09;;;;;;;20.10;13.57;;;;;;;18.94;40.16;102951.25;10415778;28;20125;-77
2022/03/21 15:04:11;;;;;;;16.80;12.45;;;;;;;18.56;40.72;102943.41;10382530;28;20544;-77
2022/03/21 15:09:12;;;;;;;13.85;12.07;;;;;;;18.38;40.80;102942.22;10382723;28;20030;-77
2022/03/21 15:14:20;;;;;;;19.05;13.18;;;;;;;17.99;40.65;102940.84;10414753;28;20037;-77
2022/03/21 15:19:22;;;;;;;25.98;13.82;;;;;;;17.74;41.32;102946.72;10416437;28;20021;-77
2022/03/21 15:24:23;;;;;;;13.85;12.07;;;;;;;17.50;41.23;102936.13;10400073;28;20041;-77
2022/03/21 15:29:24;;;;;;;19.08;13.15;;;;;;;17.14;42.35;102939.72;10399858;28;20080;-77
2022/03/21 15:34:25;;;;;;;24.33;14.00;;;;;;;16.71;42.79;102936.78;10399697;28;20427;-77
2022/03/21 15:44:45;;;;;;;28.77;13.95;;;;;;;16.24;44.06;102937.94;10419536;28;20120;-77
2022/03/21 15:49:48;;;;;;;26.40;13.40;;;;;;;16.06;45.11;102932.84;10401373;28;20096;-78
2022/03/21 15:54:51;;;;;;;25.38;14.43;;;;;;;15.83;46.06;102943.78;10385857;28;20045;-77
2022/03/21 15:59:52;;;;;;;17.45;12.40;;;;;;;15.78;45.27;102932.53;10422389;28;20041;-77
2022/03/21 16:04:53;;;;;;;25.88;14.02;;;;;;;15.62;46.61;102928.03;10405923;28;20047;-77
2022/03/21 16:09:54;;;;;;;14.65;13.05;;;;;;;15.70;46.39;102932.63;10405318;28;20128;-76
2022/03/21 16:14:56;;;;;;;28.35;14.55;;;;;;;15.76;45.88;102926.41;10404641;28;20088;-77
2022/03/21 16:19:56;;;;;;;19.42;14.25;;;;;;;15.85;45.71;102924.47;10421072;28;20029;-77
2022/03/21 16:24:57;;;;;;;21.60;14.85;;;;;;;15.75;47.00;102932.91;10422527;28;20040;-77
2022/03/21 16:29:58;;;;;;;22.63;14.05;;;;;;;15.78;46.57;102932.53;10388425;28;20037;-77
2022/03/21 16:35:00;;;;;;;27.30;14.43;;;;;;;15.75;46.77;102935.63;10421048;28;20432;-77
2022/03/21 16:40:03;;;;;;;31.35;16.55;;;;;;;15.69;46.80;102936.38;10419967;28;20087;-77
2022/03/21 16:45:05;;;;;;;33.90;14.68;;;;;;;15.56;46.51;102940.50;10404392;28;20075;-77
2022/03/21 16:50:11;;;;;;;27.95;17.13;;;;;;;15.42;47.09;102941.28;10402858;28;20068;-77
2022/03/21 16:55:13;;;;;;;25.02;15.63;;;;;;;15.23;47.88;102939.88;10420117;28;20029;-77
2022/03/21 17:00:14;;;;;;;24.42;15.52;;;;;;;15.13;47.53;102941.13;10420319;28;20072;-77
2022/03/21 17:05:16;;;;;;;31.92;17.23;;;;;;;14.98;48.89;102944.56;10418824;28;20033;-77
2022/03/21 17:10:23;;;;;;;28.27;16.80;;;;;;;14.86;48.86;102945.97;10420161;28;20466;-77
2022/03/21 17:15:25;;;;;;;47.47;17.30;;;;;;;14.71;49.92;102950.47;10404877;28;20032;-76
2022/03/21 17:25:56;;;;;;;38.67;17.20;;;;;;;14.31;48.71;102949.50;10433020;28;20034;-77
2022/03/21 17:31:02;;;;;;;32.47;14.90;;;;;;;14.06;49.34;102960.41;10434207;28;20029;-77
2022/03/21 17:36:05;;;;;;;31.30;15.75;;;;;;;13.86;49.58;102953.59;10401426;28;20029;-76
2022/03/21 17:41:06;;;;;;;25.17;13.27;;;;;;;13.64;49.83;102955.94;10402019;28;20041;-76
2022/03/21 17:46:10;;;;;;;43.95;18.52;;;;;;;13.45;50.15;102961.69;10419197;28;20469;-77
2022/03/21 17:51:11;;;;;;;30.13;16.50;;;;;;;13.19;50.12;102970.75;10401841;28;20092;-77
2022/03/21 17:56:14;;;;;;;27.60;17.25;;;;;;;12.95;49.61;102976.94;10401406;28;20037;-76
2022/03/21 18:01:17;;;;;;;21.05;17.15;;;;;;;12.70;49.71;102975.09;10418431;28;20424;-76
2022/03/21 18:06:20;;;;;;;34.85;20.30;;;;;;;12.47;49.71;102988.38;10417521;28;20041;-76
2022/03/21 18:11:21;;;;;;;35.67;20.10;;;;;;;12.25;49.51;102987.00;10384846;28;20034;-76
2022/03/21 18:16:25;;;;;;;32.42;19.63;;;;;;;12.05;49.73;102994.50;10416151;28;20458;-76
2022/03/21 18:21:31;;;;;;;31.30;18.95;;;;;;;11.88;49.53;102993.50;10418559;28;20037;-76
2022/03/21 18:26:33;;;;;;;37.13;20.23;;;;;;;11.71;49.46;103002.44;10421335;28;20077;-76
2022/03/21 18:31:34;;;;;;;38.03;18.35;;;;;;;11.61;49.69;103014.22;10417681;28;20036;-76
2022/03/21 18:36:36;;;;;;;40.47;21.73;;;;;;;11.55;49.68;103011.25;10417278;28;20433;-76
2022/03/21 18:41:38;;;;;;;38.03;19.25;;;;;;;11.44;50.34;103006.03;10415795;28;20035;-76
2022/03/21 18:46:39;;;;;;;37.22;20.40;;;;;;;11.38;50.40;103016.47;10415427;28;20029;-76
2022/03/21 18:51:40;;;;;;;43.42;21.85;;;;;;;11.29;50.21;103024.66;10417584;28;20091;-76
2022/03/21 18:56:41;;;;;;;42.10;21.98;;;;;;;11.15;50.53;103021.47;10400245;28;20064;-76
2022/03/21 19:01:42;;;;;;;46.00;21.88;;;;;;;11.03;50.38;103025.34;10401689;28;20045;-76
2022/03/21 19:06:43;;;;;;;37.28;21.75;;;;;;;10.89;50.87;103037.53;10416292;28;20436;-76
2022/03/21 19:11:45;;;;;;;38.58;21.40;;;;;;;10.81;50.75;103037.41;10415539;28;20037;-76
2022/03/21 19:16:48;;;;;;;38.33;20.95;;;;;;;10.76;51.16;103030.75;10415944;28;20091;-76
2022/03/21 19:21:49;;;;;;;40.70;21.67;;;;;;;10.67;52.60;103040.59;10414785;28;20064;-76
2022/03/21 19:26:51;;;;;;;33.10;21.33;;;;;;;10.61;53.65;103042.03;10417472;28;20488;-76
2022/03/21 19:31:52;;;;;;;34.78;22.83;;;;;;;10.61;57.81;103049.31;10424465;28;20073;-76
2022/03/21 19:36:53;;;;;;;46.53;23.95;;;;;;;10.58;57.77;103046.88;10411115;28;20060;-76
2022/03/21 19:41:55;;;;;;;37.78;22.90;;;;;;;10.51;57.55;103043.03;10423649;28;20503;-74
2022/03/21 19:46:57;;;;;;;42.00;21.23;;;;;;;10.45;55.80;103056.16;10423330;28;20504;-77
2022/03/21 19:52:00;;;;;;;35.83;20.95;;;;;;;10.36;55.30;103056.16;10422277;28;20057;-77
2022/03/21 19:57:01;;;;;;;30.23;19.15;;;;;;;10.24;55.75;103061.72;10424130;28;20458;-76
2022/03/21 20:02:02;;;;;;;30.27;18.90;;;;;;;10.17;54.46;103057.84;10424560;28;20044;-77
2022/03/21 20:07:04;;;;;;;32.17;21.60;;;;;;;10.07;54.40;103059.69;10438415;28;20465;-76
2022/03/21 20:12:05;;;;;;;32.00;18.52;;;;;;;10.00;55.05;103053.97;10406334;28;20037;-76
2022/03/21 20:17:06;;;;;;;35.05;22.27;;;;;;;9.99;56.74;103054.13;10420381;28;20041;-76
2022/03/21 20:22:09;;;;;;;35.60;19.95;;;;;;;9.98;57.60;103065.94;10421148;28;20108;-75
2022/03/21 20:27:10;;;;;;;31.35;19.92;;;;;;;9.92;56.85;103063.78;10421655;28;20034;-74
2022/03/21 20:32:13;;;;;;;39.55;22.52;;;;;;;9.78;55.56;103070.47;10388265;28;20030;-76
2022/03/21 20:37:15;;;;;;;42.20;22.88;;;;;;;9.67;55.82;103068.75;10421034;28;20117;-77
2022/03/21 20:42:16;;;;;;;36.40;19.48;;;;;;;9.54;55.90;103070.84;10421497;28;20091;-77
2022/03/21 20:47:18;;;;;;;42.47;23.75;;;;;;;9.39;55.64;103070.38;10421828;28;20059;-76
2022/03/21 20:52:19;;;;;;;44.20;22.38;;;;;;;9.31;56.26;103068.31;10421495;28;20096;-75
2022/03/21 20:57:20;;;;;;;43.55;23.83;;;;;;;9.28;56.70;103067.75;10405658;28;20029;-76
2022/03/21 21:02:20;;;;;;;51.08;24.13;;;;;;;9.20;56.49;103076.53;10425682;28;20034;-76
2022/03/21 21:07:21;;;;;;;26.80;20.10;;;;;;;9.17;58.19;103074.09;10423956;28;20095;-75
2022/03/21 21:12:22;;;;;;;36.05;22.65;;;;;;;9.15;58.65;103069.81;10402688;28;20389;-76
2022/03/21 21:17:23;;;;;;;38.58;21.58;;;;;;;9.08;58.51;103073.06;10420100;28;20065;-75
2022/03/21 21:22:25;;;;;;;40.00;21.75;;;;;;;9.05;58.42;103080.59;10418833;28;20072;-76
2022/03/21 21:27:25;;;;;;;36.22;22.75;;;;;;;8.92;57.87;103075.38;10402874;28;20116;-76
2022/03/21 21:32:26;;;;;;;37.38;22.40;;;;;;;8.81;57.63;103070.94;10419257;28;20030;-76
2022/03/21 21:37:28;;;;;;;36.53;22.17;;;;;;;8.76;58.23;103083.13;10418714;28;20160;-76
2022/03/21 21:42:28;;;;;;;27.85;20.00;;;;;;;8.66;58.23;103066.84;10419083;28;20378;-76
2022/03/21 21:47:29;;;;;;;40.95;21.60;;;;;;;8.63;58.64;103077.91;10417915;28;20119;-76
2022/03/21 21:52:29;;;;;;;39.65;22.55;;;;;;;8.56;58.88;103076.72;10416975;28;20094;-75
2022/03/21 21:57:31;;;;;;;32.25;21.05;;;;;;;8.47;59.05;103070.25;10416888;28;20465;-76
2022/03/21 22:02:32;;;;;;;33.67;22.65;;;;;;;8.41;58.87;103068.06;10400966;28;20033;-75
2022/03/21 22:07:33;;;;;;;44.95;21.33;;;;;;;8.36;58.64;103073.00;10418591;28;20029;-76
2022/03/21 22:12:34;;;;;;;33.50;21.05;;;;;;;8.38;58.72;103063.78;10417214;28;20030;-75
2022/03/21 22:17:35;;;;;;;33.25;19.42;;;;;;;8.46;59.01;103060.47;10417245;28;20029;-75
2022/03/21 22:22:35;;;;;;;43.97;23.73;;;;;;;8.44;58.93;103056.16;10417044;28;20041;-76
2022/03/21 22:27:36;;;;;;;30.02;20.13;;;;;;;8.41;58.94;103062.69;10421637;28;20029;-75
2022/03/21 22:32:37;;;;;;;41.88;24.60;;;;;;;8.31;59.51;103062.56;10418779;28;20029;-77
2022/03/21 22:37:38;;;;;;;31.35;22.98;;;;;;;8.23;61.81;103062.38;10417635;28;20037;-76
2022/03/21 22:47:58;;;;;;;47.13;26.98;;;;;;;8.22;61.69;103066.03;10415833;28;20058;-76
2022/03/21 22:52:58;;;;;;;37.47;22.90;;;;;;;8.18;60.90;103063.75;10416587;28;20041;-76
2022/03/21 22:57:59;;;;;;;42.33;23.40;;;;;;;8.08;60.91;103058.25;10415282;28;20555;-76
2022/03/21 23:02:59;;;;;;;46.97;24.08;;;;;;;8.02;60.46;103050.69;10400120;28;20041;-76
2022/03/21 23:08:00;;;;;;;38.42;26.30;;;;;;;7.88;60.61;103057.19;10416738;28;20033;-76
2022/03/21 23:13:01;;;;;;;32.97;26.13;;;;;;;7.80;60.96;103067.78;10399727;28;20450;-76
2022/03/21 23:18:01;;;;;;;32.00;21.58;;;;;;;7.69;60.80;103057.88;10431524;28;20128;-75
2022/03/21 23:23:03;;;;;;;42.75;24.58;;;;;;;7.60;61.15;103066.72;10418307;28;20116;-76
2022/03/21 23:28:09;;;;;;;43.08;26.83;;;;;;;7.55;61.57;103064.38;10417606;28;20476;-76
2022/03/21 23:33:11;;;;;;;35.05;22.67;;;;;;;7.50;61.40;103057.63;10403091;28;20033;-76